Login
Access
Login with your mtb-forum.it nickname and password.


You do not have an account? Sign up here for free

minaroby

Last training unit 11/07/2013
4
Followers
0 Km
itineraries
0 m
of total vertical gain
0
hours of riding
0 Km/h
average speed
125
average HR


11/07/2013 Show to everybody 11 Lug. 49.63 Km 666 m 02:03:32 24.1 Km\h
08/07/2013 Show to everybody 8 Lug. 49.48 Km 545 m 01:57:33 25.26 Km\h
30/06/2013 Show to everybody GF Giro dell\`Etna 131.69 Km 1897 m 03:50:51 34.23 Km\h
29/06/2013 Show to everybody 29 Giu. 51.45 Km 905 m 02:09:39 23.81 Km\h
28/05/2013 Show to everybody 28 Mag. 72.45 Km 1603 m 02:54:50 24.87 Km\h
26/05/2013 Show to everybody 26 Mag. 69.17 Km 361 m 02:02:45 33.81 Km\h
25/05/2013 Show to everybody 25 Mag. 48.03 Km 467 m 01:53:58 25.29 Km\h
17/05/2013 Show to everybody 17 Mag. 53.36 Km 183 m 02:05:46 25.46 Km\h
13/05/2013 Show to everybody 13 Mag. 150.41 Km 2950 m 05:40:19 26.52 Km\h
12/05/2013 Show to everybody 12 Mag. 86.37 Km 1626 m 03:12:27 26.93 Km\h
11/05/2013 Show to everybody 11 Mag. 53.16 Km 334 m 02:04:17 25.66 Km\h
10/05/2013 Show to everybody 10 Mag. 51.97 Km 925 m 02:05:47 24.79 Km\h
09/05/2013 Show to everybody 9 Mag. 62.27 Km 236 m 02:00:49 30.93 Km\h
07/05/2013 Show to everybody 7 Mag. 64.11 Km 42 m 01:55:49 33.21 Km\h
06/05/2013 Show to everybody 6 Mag. 51.41 Km 440 m 02:01:48 25.32 Km\h
05/05/2013 Show to everybody GF Valle dei Templi (AG) 113.22 Km 2003 m 03:18:48 34.17 Km\h
04/05/2013 Show to everybody 4 Mag. 48.12 Km 536 m 02:01:49 23.7 Km\h
03/05/2013 Show to everybody 3 Mag. 53.66 Km 583 m 02:03:52 25.99 Km\h
02/05/2013 Show to everybody 2 Mag. 63.38 Km 1102 m 02:33:39 24.75 Km\h
01/05/2013 Show to everybody 1 Mag. 64.87 Km 992 m 02:23:40 27.09 Km\h
30/04/2013 Show to everybody 30 Apr. 49.61 Km 1191 m 02:11:34 22.63 Km\h
29/04/2013 Show to everybody 29 Apr. 53.69 Km 384 m 01:57:18 27.46 Km\h
28/04/2013 Show to everybody 28 Apr. lungo 129.26 Km 2148 m 04:29:17 28.8 Km\h
26/04/2013 Show to everybody 26 Apr. 55.5 Km 808 m 01:55:32 28.83 Km\h
25/04/2013 Show to everybody 25 Apr. 67.06 Km 1020 m 02:27:44 27.23 Km\h
21/04/2013 Show to everybody 21 Apr. 128.69 Km 1088 m 03:56:08 32.7 Km\h
20/04/2013 Show to everybody 20 Apr. 51.48 Km 573 m 02:04:51 24.74 Km\h
19/04/2013 Show to everybody 19 Apr. 52.09 Km 448 m 02:05:52 24.83 Km\h
18/04/2013 Show to everybody 18 Apr. 55.28 Km 879 m 02:12:55 24.95 Km\h
17/04/2013 Show to everybody 17 Apr. 56.22 Km 913 m 02:00:22 28.03 Km\h
16/04/2013 Show to everybody 16 Apr. 159.08 Km 3506 m 06:00:40 26.46 Km\h
15/04/2013 Show to everybody 15 Apr. 54.44 Km 445 m 02:06:09 25.89 Km\h
14/04/2013 Show to everybody GF Lombardo 2013 136.01 Km 2528 m 04:12:50 32.28 Km\h
12/04/2013 Show to everybody 12 Apr. 49.93 Km 596 m 02:04:23 24.09 Km\h
11/04/2013 Show to everybody 11 Apr. 68.66 Km 938 m 02:42:30 25.35 Km\h
10/04/2013 Show to everybody 10 Apr. 60.43 Km 695 m 02:09:38 27.97 Km\h
09/04/2013 Show to everybody 9 Apr. 67.25 Km 996 m 02:29:41 26.96 Km\h
07/04/2013 Show to everybody 7 Apr. bdc-distanza. 145.99 Km 2692 m 05:01:24 29.06 Km\h
06/04/2013 Show to everybody 6 Apr. 56.55 Km 36 m 02:01:52 27.84 Km\h
05/04/2013 Show to everybody 5 Apr. 69.23 Km 1064 m 02:23:00 29.05 Km\h
04/04/2013 Show to everybody 4 Apr. 32.44 Km 239 m 01:07:05 29.02 Km\h
03/04/2013 Show to everybody 3 Apr. 57.26 Km 627 m 02:00:45 28.45 Km\h
02/04/2013 Show to everybody 2 Apr. 74.61 Km 1484 m 02:49:47 26.37 Km\h
31/03/2013 Show to everybody 31 Mar. 105.24 Km 1648 m 03:59:09 26.4 Km\h
30/03/2013 Show to everybody 30 Mar. 52.47 Km 529 m 01:56:19 27.07 Km\h
29/03/2013 Show to everybody 29 Mar. 49.59 Km 254 m 01:57:48 25.26 Km\h
28/03/2013 Show to everybody 28 Mar. 55.47 Km 707 m 02:07:02 26.2 Km\h
27/03/2013 Show to everybody 27 Mar. 62.96 Km 1032 m 02:28:32 25.43 Km\h
26/03/2013 Show to everybody 26 Mar. 72.99 Km 1203 m 02:30:03 29.19 Km\h
24/03/2013 Show to everybody 24 Mar. 115.02 Km 1420 m 03:12:41 35.81 Km\h
23/03/2013 Show to everybody 23 Mar. 53.04 Km 572 m 02:07:25 24.98 Km\h
22/03/2013 Show to everybody 22 Mar. 50.83 Km 815 m 02:14:39 22.65 Km\h
21/03/2013 Show to everybody 21 Mar. 56.89 Km 272 m 01:59:00 28.69 Km\h
20/03/2013 Show to everybody 20 Mar. 84.09 Km 1119 m 02:59:40 28.08 Km\h
19/03/2013 Show to everybody 19 Mar. 55.41 Km 886 m 02:03:54 26.83 Km\h
17/03/2013 Show to everybody 17 Mar. 126.29 Km 1598 m 03:30:41 35.96 Km\h
12/03/2013 Show to everybody 12 Mar. 83.64 Km 1604 m 02:57:17 28.31 Km\h
10/03/2013 Show to everybody GF DI SCICLI 125.13 Km 1497 m 03:16:25 38.22 Km\h
09/03/2013 Show to everybody 9 Mar. 30.96 Km 134 m 01:09:31 26.72 Km\h
03/03/2013 Show to everybody 3 Mar. 141.23 Km 2497 m 05:28:51 25.77 Km\h
25/02/2013 Show to everybody 25 Feb. 63.4 Km 1547 m 02:49:33 22.44 Km\h
20/02/2013 Show to everybody 20 Feb. 60.89 Km 1499 m 02:28:03 24.68 Km\h
17/02/2013 Show to everybody 17 Feb. 160.83 Km 2042 m 05:38:11 28.53 Km\h
16/02/2013 Show to everybody 16 Feb. 63.79 Km 1110 m 02:27:55 25.88 Km\h
14/02/2013 Show to everybody 14 Feb. 51.41 Km 442 m 01:55:37 26.68 Km\h
10/02/2013 Show to everybody 10 Feb. 120.95 Km 734 m 04:06:57 29.39 Km\h
07/02/2013 Show to everybody 07 Feb. 66.89 Km 1110 m 02:33:32 26.14 Km\h
05/02/2013 Show to everybody 05 Feb. 37.65 Km 1049 m 01:46:08 21.28 Km\h
03/02/2013 Show to everybody 03 Feb. 101.59 Km 1442 m 03:41:01 27.58 Km\h
02/02/2013 Show to everybody 02 Feb. 50.36 Km 104 m 01:57:01 25.82 Km\h
31/01/2013 Show to everybody 31 Gen. 62.07 Km 979 m 02:23:05 26.03 Km\h
30/01/2013 Show to everybody 30 Gen. 52.35 Km 733 m 02:11:25 23.9 Km\h
29/01/2013 Show to everybody 29 Gen. 63.92 Km 1492 m 02:44:19 23.34 Km\h
27/01/2013 Show to everybody 27 Gen. 129.22 Km 1398 m 04:16:44 30.2 Km\h
20/01/2013 Show to everybody 20 gen. 104.78 Km 1014 m 03:32:46 29.55 Km\h
13/01/2013 Show to everybody 13 gen. 61.33 Km 347 m 02:11:02 28.08 Km\h
12/01/2013 Show to everybody 12 gen. 64.65 Km 1050 m 02:31:33 25.6 Km\h
10/01/2013 Show to everybody 10 Gen. 54.27 Km 575 m 02:03:20 26.4 Km\h
09/01/2013 Show to everybody 9 Gen. 57.76 Km 582 m 02:05:32 27.61 Km\h
08/01/2013 Show to everybody 8 Gen. 63.32 Km 943 m 02:32:20 24.94 Km\h
06/01/2013 Show to everybody 6 Gen. 142.09 Km 1896 m 05:20:10 26.63 Km\h
05/01/2013 Show to everybody 5 Gen. 58.43 Km 952 m 02:38:08 22.17 Km\h
03/01/2013 Show to everybody 3 Gen. 60.05 Km 813 m 02:17:59 26.11 Km\h
01/01/2013 Show to everybody 1 Gen. 72.14 Km 1212 m 02:57:55 24.33 Km\h
30/12/2012 Show to everybody 30 dic. 70.91 Km 1211 m 02:53:23 24.54 Km\h
27/12/2012 Show to everybody 27 dic. 57.3 Km 568 m 02:04:15 27.67 Km\h
25/12/2012 Show to everybody 25 dic. 47.03 Km 928 m 02:01:01 23.32 Km\h
24/12/2012 Show to everybody 24 dic. 52.94 Km 549 m 02:00:06 26.45 Km\h
23/12/2012 Show to everybody 23 dic. 143.78 Km 1524 m 05:05:15 28.26 Km\h
20/12/2012 Show to everybody 20 dic. 137.46 Km 1413 m 04:57:51 27.69 Km\h
18/12/2012 Show to everybody 18 dic. 48.44 Km 710 m 01:55:30 25.16 Km\h
16/12/2012 Show to everybody 16 dic. 99.6 Km 490 m 03:10:43 31.33 Km\h
15/12/2012 Show to everybody 15 dic. 49.85 Km 803 m 02:03:08 24.29 Km\h
13/12/2012 Show to everybody 13 dic. 51.36 Km 852 m 02:00:29 25.58 Km\h
11/12/2012 Show to everybody 11 dic. 87.2 Km 1675 m 03:28:48 25.06 Km\h
06/12/2012 Show to everybody 6 dic. 50.68 Km 928 m 02:00:29 25.24 Km\h
04/12/2012 Show to everybody 4 dic. 33.36 Km 860 m 01:29:34 22.34 Km\h
02/12/2012 Show to everybody 2 dic. 101.48 Km 496 m 03:07:15 32.52 Km\h
28/11/2012 Show to everybody 28 nov. 48.66 Km 839 m 01:51:24 26.21 Km\h
27/11/2012 Show to everybody 27 nov. 51.9 Km 1170 m 02:11:34 23.67 Km\h
25/11/2012 Show to everybody 25 nov. 112.03 Km 1496 m 03:58:00 28.24 Km\h
24/11/2012 Show to everybody 24 nov. 52.53 Km 860 m 02:10:48 24.1 Km\h
22/11/2012 Show to everybody 22 nov. 152.91 Km 2738 m 05:40:56 26.91 Km\h
21/11/2012 Show to everybody 21 nov. 50.27 Km 591 m 02:01:40 24.79 Km\h
20/11/2012 Show to everybody 20 nov. 61.9 Km 1003 m 02:31:19 24.55 Km\h
18/11/2012 Show to everybody 18 nov. 61.19 Km 298 m 01:53:40 32.3 Km\h
17/11/2012 Show to everybody 17 nov. 55.44 Km 902 m 02:03:59 26.83 Km\h
11/11/2012 Show to everybody 11 nov. 135.32 Km 2094 m 04:59:59 27.07 Km\h
08/11/2012 Show to everybody 8 nov. 46.54 Km 1003 m 02:00:58 23.08 Km\h
06/11/2012 Show to everybody 6 nov. 63.03 Km 1062 m 02:27:14 25.69 Km\h
04/11/2012 Show to everybody 4 nov. 91.12 Km 1150 m 03:36:31 25.25 Km\h
03/11/2012 Show to everybody 3 nov. 56.33 Km 963 m 02:14:16 25.17 Km\h
01/11/2012 Show to everybody 1 nov. 58.12 Km 1149 m 02:17:03 25.44 Km\h
30/10/2012 Show to everybody 30 ott. 52.13 Km 813 m 02:03:17 25.37 Km\h
29/10/2012 Show to everybody 29 ott. 143.62 Km 1639 m 05:18:23 27.07 Km\h
26/10/2012 Show to everybody 26 ott. 65.79 Km 795 m 02:32:43 25.85 Km\h
21/10/2012 Show to everybody 21 ott. 131.63 Km 1971 m 05:03:38 26.01 Km\h
20/10/2012 Show to everybody 20 ott. 56.75 Km 538 m 02:07:13 26.76 Km\h
19/10/2012 Show to everybody 19 ott. 57.54 Km 551 m 01:57:17 29.44 Km\h
14/10/2012 Show to everybody 14 ott. 126.11 Km 1506 m 04:40:57 26.93 Km\h
11/10/2012 Show to everybody 11 ott. 54.27 Km 419 m 01:57:04 27.82 Km\h
10/10/2012 Show to everybody 10 ott. 58.33 Km 1049 m 02:20:47 24.86 Km\h
09/10/2012 Show to everybody 9 ott. 53.94 Km 505 m 02:03:03 26.3 Km\h
07/10/2012 Show to everybody 7 ott. 139.35 Km 1911 m 05:06:14 27.3 Km\h
06/10/2012 Show to everybody 6 ott. 52.6 Km 403 m 01:58:26 26.65 Km\h
05/10/2012 Show to everybody 5 ott. 75.74 Km 1075 m 02:39:38 28.47 Km\h
04/10/2012 Show to everybody 4 ott. 54.9 Km 537 m 01:59:35 27.55 Km\h
03/10/2012 Show to everybody 3 ott. 55.28 Km 882 m 02:06:29 26.22 Km\h
02/10/2012 Show to everybody 2 ott. 65.39 Km 1002 m 02:26:20 26.81 Km\h
30/09/2012 Show to everybody 30 sett. 120.71 Km 2077 m 04:43:27 25.55 Km\h
28/09/2012 Show to everybody 28 sett. 73.3 Km 1274 m 02:43:34 26.89 Km\h
27/09/2012 Show to everybody 27 sett. 57.8 Km 531 m 01:58:59 29.15 Km\h
25/09/2012 Show to everybody 25 sett. 50.77 Km 757 m 02:02:30 24.87 Km\h
24/09/2012 Show to everybody 24 sett. 51.96 Km 390 m 02:05:41 24.81 Km\h
23/09/2012 Show to everybody 23 sett. 136.26 Km 1942 m 04:52:57 27.91 Km\h
21/09/2012 Show to everybody 21 sett. 69 Km 1035 m 02:40:03 25.87 Km\h
19/09/2012 Show to everybody 19 sett. 52.63 Km 514 m 02:02:57 25.68 Km\h
18/09/2012 Show to everybody 18 sett. 50.91 Km 708 m 02:01:50 25.07 Km\h
16/09/2012 Show to everybody Medio Fondo Speed Pass 83.06 Km 1843 m 02:38:13 31.5 Km\h
14/09/2012 Show to everybody 14 sett. 51.08 Km 844 m 01:52:53 27.15 Km\h
12/09/2012 Show to everybody 12 sett. 70.18 Km 1066 m 02:24:21 29.17 Km\h
11/09/2012 Show to everybody 11 sett. 52.23 Km 408 m 02:00:52 25.93 Km\h
10/09/2012 Show to everybody 10 sett. 50.69 Km 866 m 01:59:37 25.43 Km\h
09/09/2012 Show to everybody 9 sett. 18.87 Km 21 m 00:23:49 47.53 Km\h
08/09/2012 Show to everybody 8 sett. 52.33 Km 515 m 01:54:52 27.33 Km\h
06/09/2012 Show to everybody 6 sett 53.47 Km 783 m 01:58:33 27.06 Km\h
05/09/2012 Show to everybody 5 sett. 96.63 Km 1451 m 03:25:56 28.15 Km\h
04/09/2012 Show to everybody 4 sett. 64.44 Km 257 m 01:56:47 33.11 Km\h
02/09/2012 Show to everybody 2 sett. 29.31 Km 439 m 00:49:40 35.41 Km\h
01/09/2012 Show to everybody 1 sett. 51.71 Km 226 m 01:57:35 26.39 Km\h
31/08/2012 Show to everybody 31 ago. 63.83 Km 919 m 02:18:31 27.65 Km\h
29/08/2012 Show to everybody 29 ago. 57.45 Km 710 m 01:58:54 28.99 Km\h
28/08/2012 Show to everybody 28 ago. 92.71 Km 1626 m 03:14:54 28.54 Km\h
27/08/2012 Show to everybody 27 ago. 93.33 Km 1271 m 02:58:56 31.3 Km\h
26/08/2012 Show to everybody 26 ago. 35.05 Km 434 m 01:01:15 34.33 Km\h
25/08/2012 Show to everybody 25 ago. 52.38 Km 520 m 02:02:21 25.69 Km\h
24/08/2012 Show to everybody 24 ago. 52.48 Km 888 m 02:00:40 26.1 Km\h
23/08/2012 Show to everybody 23 ago. 51.41 Km 421 m 01:53:48 27.1 Km\h
22/08/2012 Show to everybody 22 ago. 53.51 Km 801 m 01:53:02 28.41 Km\h
21/08/2012 Show to everybody 21 ago. 50.56 Km 1501 m 02:04:32 24.36 Km\h
20/08/2012 Show to everybody 20 ago. 54.08 Km 514 m 02:04:07 26.14 Km\h
19/08/2012 Show to everybody 19 ago. 110.4 Km 994 m 04:01:26 27.44 Km\h
17/08/2012 Show to everybody 17 ago. 22.19 Km 108 m 00:33:06 40.23 Km\h
16/08/2012 Show to everybody 16 ago. 52.45 Km 487 m 01:58:59 26.45 Km\h
14/08/2012 Show to everybody 14 ago. 52.45 Km 754 m 01:54:54 27.39 Km\h
13/08/2012 Show to everybody 13 ago. 65.73 Km 1832 m 02:41:58 24.35 Km\h
12/08/2012 Show to everybody 12 ago. 38 Km 214 m 01:01:19 37.19 Km\h
11/08/2012 Show to everybody 11 ago. 52.22 Km 514 m 02:02:50 25.51 Km\h
10/08/2012 Show to everybody 10 ago. 53.9 Km 856 m 01:58:26 27.31 Km\h
08/08/2012 Show to everybody 8 ago. 67.18 Km 234 m 02:04:57 32.26 Km\h
07/08/2012 Show to everybody 7 ago. 44.4 Km 1075 m 01:49:38 24.3 Km\h
06/08/2012 Show to everybody 6 ago. 51.05 Km 388 m 01:53:25 27.01 Km\h
05/08/2012 Show to everybody 5 ago. 42.21 Km 175 m 01:05:32 38.65 Km\h
04/08/2012 Show to everybody 4 ago. 52.38 Km 547 m 01:57:36 26.73 Km\h
03/08/2012 Show to everybody 3 ago. 62.66 Km 1029 m 02:20:04 26.84 Km\h
02/08/2012 Show to everybody 2 ago. 51.19 Km 391 m 02:01:04 25.37 Km\h
01/08/2012 Show to everybody 1 ago. 50.5 Km 744 m 01:55:45 26.18 Km\h
31/07/2012 Show to everybody 31 lug. 69.9 Km 1576 m 02:40:19 26.16 Km\h
30/07/2012 Show to everybody 30 lug. 52.35 Km 534 m 01:56:52 26.87 Km\h
29/07/2012 Show to everybody 29 lug. 84.64 Km 976 m 02:55:33 28.93 Km\h
28/07/2012 Show to everybody 28 lug. 60.73 Km 225 m 02:06:32 28.8 Km\h
27/07/2012 Show to everybody 27 lug. 84.87 Km 597 m 02:43:53 31.07 Km\h
26/07/2012 Show to everybody 26 lug. 61.15 Km 253 m 01:46:43 34.38 Km\h
25/07/2012 Show to everybody 25 lug. 72.22 Km 425 m 02:24:31 29.98 Km\h
24/07/2012 Show to everybody 24 lug. 55.88 Km 264 m 01:45:30 31.78 Km\h
22/07/2012 Show to everybody TROFEO S.ANTONIO(circuito) 38.84 Km 172 m 00:57:57 40.22 Km\h
21/07/2012 Show to everybody 21 lug. 55.97 Km 404 m 02:00:08 27.96 Km\h
20/07/2012 Show to everybody 20 lug. 41.47 Km 608 m 01:55:05 21.62 Km\h
19/07/2012 Show to everybody 19 lug. 58.24 Km 831 m 02:07:55 27.32 Km\h
18/07/2012 Show to everybody 18 lug. 73.16 Km 1068 m 02:30:53 29.09 Km\h
17/07/2012 Show to everybody 17 lug. 52.41 Km 475 m 02:01:06 25.97 Km\h
16/07/2012 Show to everybody 16 lug. 49.7 Km 631 m 02:00:34 24.73 Km\h
14/07/2012 Show to everybody 14 lug. 49.9 Km 812 m 02:02:15 24.49 Km\h
12/07/2012 Show to everybody 12 luglio 45.65 Km 847 m 01:39:31 27.52 Km\h
11/07/2012 Show to everybody 11 luglio 49.02 Km 727 m 01:50:59 26.5 Km\h
10/07/2012 Show to everybody 10 luglio 52.69 Km 501 m 01:55:43 27.32 Km\h
08/07/2012 Show to everybody GF del Vallone (CL) 131.44 Km 2127 m 04:11:59 31.3 Km\h
07/07/2012 Show to everybody 7 luglio 58.73 Km 991 m 02:34:39 22.79 Km\h
06/07/2012 Show to everybody 6 luglio 54.01 Km 212 m 02:00:10 26.97 Km\h
05/07/2012 Show to everybody 5 lug. 45.96 Km 880 m 01:45:58 26.02 Km\h
04/07/2012 Show to everybody 4 lug. 52.76 Km 222 m 01:57:22 26.97 Km\h
03/07/2012 Show to everybody 3 luglio 93.75 Km 1682 m 03:40:19 25.53 Km\h
01/07/2012 Show to everybody 1 luglio 146.2 Km 2331 m 05:08:52 28.4 Km\h
30/06/2012 Show to everybody 30 giugno 46 Km 305 m 01:12:32 38.05 Km\h
29/06/2012 Show to everybody 29 giugno 53.05 Km 316 m 01:56:51 27.24 Km\h
28/06/2012 Show to everybody 28 giugno 50.16 Km 1009 m 01:58:24 25.42 Km\h
27/06/2012 Show to everybody 27 giugno 65.21 Km 36 m 02:05:09 31.27 Km\h
26/06/2012 Show to everybody 26 giugno 46.73 Km 967 m 01:48:38 25.81 Km\h
25/06/2012 Show to everybody 25 giugno 55.92 Km 143 m 02:00:56 27.75 Km\h
24/06/2012 Show to everybody 24 giugno 32.18 Km 604 m 00:53:25 36.15 Km\h
22/06/2012 Show to everybody 22 giugno 56.39 Km 440 m 02:14:34 25.14 Km\h
21/06/2012 Show to everybody 21 giugno 52.8 Km 1068 m 02:03:31 25.65 Km\h
20/06/2012 Show to everybody 20 giugno 62.75 Km 576 m 02:05:31 29.99 Km\h
19/06/2012 Show to everybody 19 giugno 44.41 Km 1046 m 01:47:15 24.85 Km\h
18/06/2012 Show to everybody 18 giugno 56.29 Km 415 m 01:57:58 28.63 Km\h
17/06/2012 Show to everybody 17 giugno 102.39 Km 1566 m 03:45:33 27.24 Km\h
15/06/2012 Show to everybody 15 giugno 51.76 Km 412 m 01:59:07 26.07 Km\h
14/06/2012 Show to everybody 14 giugno 58.1 Km 879 m 02:13:45 26.06 Km\h
13/06/2012 Show to everybody 13 giugno 93.22 Km 1749 m 03:41:49 25.22 Km\h
11/06/2012 Show to everybody 11 giugno 51.59 Km 450 m 01:55:50 26.72 Km\h
10/06/2012 Show to everybody 10 giugno 115.93 Km 1714 m 03:23:51 34.12 Km\h
09/06/2012 Show to everybody 9 giugno 50.56 Km 849 m 02:00:43 25.13 Km\h
08/06/2012 Show to everybody 8 giugno 51.37 Km 392 m 01:57:08 26.32 Km\h
07/06/2012 Show to everybody 7 giugno 59.45 Km 963 m 02:15:41 26.29 Km\h
06/06/2012 Show to everybody 6 giugno 66.18 Km 776 m 02:23:59 27.58 Km\h
05/06/2012 Show to everybody 5 giugno 82.19 Km 1487 m 03:02:22 27.04 Km\h
03/06/2012 Show to everybody 3 giugno 34.95 Km 448 m 00:55:28 37.81 Km\h
02/06/2012 Show to everybody 2 giugno 49.07 Km 701 m 01:13:41 39.96 Km\h
01/06/2012 Show to everybody 1 giugno 51.2 Km 897 m 02:13:45 22.97 Km\h
31/05/2012 Show to everybody 31 mag. 52.69 Km 317 m 01:53:24 27.88 Km\h
30/05/2012 Show to everybody 30 mag. 58.47 Km 313 m 02:00:59 29 Km\h
29/05/2012 Show to everybody 29 mag. 61.62 Km 201 m 01:56:57 31.61 Km\h
28/05/2012 Show to everybody 28 mag. 51.63 Km 526 m 01:57:08 26.45 Km\h
27/05/2012 Show to everybody 27 mag. 84.41 Km 589 m 02:39:50 31.69 Km\h
26/05/2012 Show to everybody 26 mag. 44.27 Km 317 m 01:32:43 28.65 Km\h
25/05/2012 Show to everybody 25 mag. 51.38 Km 918 m 02:02:21 25.19 Km\h
24/05/2012 Show to everybody 24 mag. 56.64 Km 548 m 01:59:48 28.37 Km\h
22/05/2012 Show to everybody 22 mag. 66.25 Km 1098 m 02:22:43 27.85 Km\h
21/05/2012 Show to everybody 21 mag. 49.84 Km 565 m 01:55:03 25.99 Km\h
20/05/2012 Show to everybody 20 mag. 45.84 Km 398 m 01:11:19 38.57 Km\h
18/05/2012 Show to everybody 18 mag. 52.74 Km 997 m 01:59:13 26.55 Km\h
17/05/2012 Show to everybody 17 mag. 52.02 Km 575 m 02:05:17 24.92 Km\h
16/05/2012 Show to everybody 16 mag. 57.57 Km 900 m 02:05:01 27.63 Km\h
15/05/2012 Show to everybody 15 mag. 77.21 Km 1749 m 03:00:35 25.65 Km\h
13/05/2012 Show to everybody 13 mag. 59.85 Km 272 m 01:35:07 37.76 Km\h
12/05/2012 Show to everybody 12 mag. 52.85 Km 607 m 02:07:29 24.88 Km\h
11/05/2012 Show to everybody 11 mag. 62.07 Km 971 m 02:18:09 26.96 Km\h
10/05/2012 Show to everybody 10 mag. 51.97 Km 462 m 02:01:19 25.7 Km\h
09/05/2012 Show to everybody 9 mag. 80.31 Km 1492 m 02:55:50 27.4 Km\h
08/05/2012 Show to everybody 8 mag. 59.4 Km 928 m 02:12:43 26.85 Km\h
06/05/2012 Show to everybody 6 mag. 127.99 Km 1980 m 03:39:23 35 Km\h
05/05/2012 Show to everybody 5 mag. 46.93 Km 421 m 01:56:47 24.11 Km\h
04/05/2012 Show to everybody 4 mag. 58.75 Km 891 m 02:08:34 27.42 Km\h
03/05/2012 Show to everybody 3 mag. 56.97 Km 521 m 02:09:13 26.46 Km\h
02/05/2012 Show to everybody 2 maggio 69.74 Km 1074 m 02:37:51 26.51 Km\h
29/04/2012 Show to everybody 29 apr. 120.19 Km 1843 m 04:28:46 26.83 Km\h
28/04/2012 Show to everybody 28 apr. 47.63 Km 517 m 01:53:45 25.12 Km\h
27/04/2012 Show to everybody 27 apr. 99.43 Km 1496 m 03:28:12 28.65 Km\h
26/04/2012 Show to everybody 26 apr. 52.09 Km 451 m 01:59:31 26.15 Km\h
25/04/2012 Show to everybody 25 apr. 128.06 Km 1556 m 04:18:16 29.75 Km\h
24/04/2012 Show to everybody 24 apr. 124.98 Km 2173 m 04:37:03 27.07 Km\h
23/04/2012 Show to everybody 23 apr. 46.05 Km 417 m 02:02:49 22.5 Km\h
22/04/2012 Show to everybody 22 apr. 140.46 Km 1699 m 03:48:41 36.85 Km\h
21/04/2012 Show to everybody 21 apr. 47.98 Km 600 m 02:02:13 23.55 Km\h
20/04/2012 Show to everybody 20 apr. 53.46 Km 995 m 02:12:44 24.17 Km\h
17/04/2012 Show to everybody 17 apr. 73.32 Km 1277 m 02:33:25 28.68 Km\h
15/04/2012 Show to everybody 15 apr. 127.05 Km 1681 m 03:21:39 37.8 Km\h
12/04/2012 Show to everybody 12 apr. 59.62 Km 38 m 02:09:46 27.57 Km\h
11/04/2012 Show to everybody 11 apr. 83.65 Km 1611 m 03:01:15 27.69 Km\h
10/04/2012 Show to everybody 10 apr. 59.67 Km 14 m 02:07:30 28.08 Km\h
07/04/2012 Show to everybody 7 apr. 81.44 Km 1533 m 03:01:38 26.9 Km\h
06/04/2012 Show to everybody 6 apr. 51.11 Km 447 m 01:57:11 26.17 Km\h
05/04/2012 Show to everybody 5 apr. 61.97 Km 750 m 02:16:15 27.29 Km\h
04/04/2012 Show to everybody 4 apr. 148.18 Km 2044 m 05:04:22 29.21 Km\h
02/04/2012 Show to everybody 2 apr. 50.52 Km 428 m 01:57:41 25.76 Km\h
01/04/2012 Show to everybody 1 apr. 42.26 Km 1001 m 01:20:15 31.6 Km\h
31/03/2012 Show to everybody 31 mar. 52.34 Km 497 m 02:02:43 25.59 Km\h
30/03/2012 Show to everybody 30 mar. 64.03 Km 1019 m 02:26:05 26.3 Km\h
29/03/2012 Show to everybody 29 mar. 54.3 Km 448 m 02:06:24 25.77 Km\h
28/03/2012 Show to everybody 28 mar. 50.38 Km 817 m 01:55:58 26.07 Km\h
27/03/2012 Show to everybody 27 mar. 75.32 Km 1138 m 02:41:07 28.05 Km\h
26/03/2012 Show to everybody 26 mar. 55.84 Km 534 m 02:12:52 25.22 Km\h
25/03/2012 Show to everybody 25 mar. 151.07 Km 2204 m 05:38:21 26.79 Km\h
24/03/2012 Show to everybody 24 mar. 51.78 Km 558 m 01:49:06 28.48 Km\h
23/03/2012 Show to everybody 23 mar. 83.09 Km 1095 m 02:46:00 30.03 Km\h
22/03/2012 Show to everybody 22 mar. 52.54 Km 560 m 01:57:59 26.72 Km\h
21/03/2012 Show to everybody 21 mar. 57.93 Km 1042 m 02:04:44 27.87 Km\h
20/03/2012 Show to everybody 20 mar. 106.24 Km 2084 m 03:47:39 28 Km\h
19/03/2012 Show to everybody 19 mar. 53.28 Km 528 m 02:06:21 25.3 Km\h
18/03/2012 Show to everybody 18 mar. 26.3 Km 173 m 01:11:31 22.07 Km\h
18/03/2012 Show to everybody 18 mar.gara 52.15 Km 287 m 01:18:32 39.84 Km\h
17/03/2012 Show to everybody 17 mar. 50.97 Km 626 m 02:02:45 24.91 Km\h
16/03/2012 Show to everybody 16 mar. 62.67 Km 1078 m 02:16:45 27.5 Km\h
15/03/2012 Show to everybody 15 mar. 49.53 Km 786 m 01:54:50 25.88 Km\h
14/03/2012 Show to everybody 14 mar. 54.27 Km 11 m 02:00:41 26.98 Km\h
13/03/2012 Show to everybody 13 mar. 96.96 Km 1402 m 03:23:44 28.56 Km\h
12/03/2012 Show to everybody 12 mar. 52.13 Km 1138 m 01:58:38 26.37 Km\h
06/03/2012 Show to everybody 6 mar. 77.71 Km 1175 m 02:42:34 28.68 Km\h
04/03/2012 Show to everybody 4 mar. 59.97 Km 407 m 02:08:48 27.94 Km\h
03/03/2012 Show to everybody 3 mar. 179.97 Km 2041 m 05:44:49 31.32 Km\h
02/03/2012 Show to everybody 2 mar. 48.62 Km 479 m 01:36:51 30.12 Km\h
01/03/2012 Show to everybody 1 mar. 63.07 Km 995 m 02:29:52 25.25 Km\h
29/02/2012 Show to everybody 29 feb. 57.76 Km 843 m 02:05:08 27.7 Km\h
28/02/2012 Show to everybody 28 feb. 66.78 Km 1353 m 02:33:34 26.09 Km\h
26/02/2012 Show to everybody 26 feb. 146.89 Km 1923 m 05:34:33 26.34 Km\h
25/02/2012 Show to everybody 25 feb. 37.7 Km 459 m 01:26:04 26.28 Km\h
24/02/2012 Show to everybody 24 feb. 83.05 Km 1559 m 02:52:48 28.84 Km\h
23/02/2012 Show to everybody 23 feb. 19.6 Km 436 m 00:51:30 22.83 Km\h
19/02/2012 Show to everybody 19 feb. 138.49 Km 1226 m 04:34:05 30.32 Km\h
18/02/2012 Show to everybody 18 feb. 51.87 Km 2 m 01:59:39 26.01 Km\h
17/02/2012 Show to everybody 17 feb. 72.41 Km 245 m 02:29:53 28.99 Km\h
16/02/2012 Show to everybody 16 feb. 56.65 Km 1169 m 02:05:47 27.02 Km\h
15/02/2012 Show to everybody 15 feb. 46.32 Km 171 m 01:31:16 30.45 Km\h
14/02/2012 Show to everybody 14 feb. 66.02 Km 979 m 02:20:58 28.1 Km\h
12/02/2012 Show to everybody 12 feb. 88.96 Km 1093 m 02:50:54 31.23 Km\h
09/02/2012 Show to everybody 9 feb. 52.24 Km 456 m 02:09:55 24.12 Km\h
08/02/2012 Show to everybody 8 feb. 133.71 Km 2157 m 05:02:49 26.49 Km\h
06/02/2012 Show to everybody 6 feb. 80.28 Km 418 m 02:59:30 26.84 Km\h
03/02/2012 Show to everybody 3 feb. 68.12 Km 1087 m 02:27:53 27.64 Km\h
29/01/2012 Show to everybody 29 gen. 105.36 Km 898 m 03:42:57 28.36 Km\h
28/01/2012 Show to everybody 28 gen. 50.54 Km 514 m 02:02:26 24.77 Km\h
27/01/2012 Show to everybody 27 gen. 130.91 Km 1587 m 04:31:39 28.91 Km\h
26/01/2012 Show to everybody 26 gen. 57.43 Km 545 m 01:55:59 29.71 Km\h
25/01/2012 Show to everybody 25 gen. 58.21 Km 944 m 02:18:18 25.25 Km\h
24/01/2012 Show to everybody 24 gen. 61.41 Km 1249 m 02:22:22 25.88 Km\h
22/01/2012 Show to everybody 22 gen. 68.82 Km 533 m 02:31:49 27.2 Km\h
20/01/2012 Show to everybody 20 gen. 56.8 Km 220 m 02:02:46 27.76 Km\h
19/01/2012 Show to everybody 19 gen. 30.6 Km 111 m 01:03:01 29.14 Km\h
18/01/2012 Show to everybody 18 gen. 54.35 Km 745 m 01:59:55 27.19 Km\h
17/01/2012 Show to everybody 17 gen. 92.69 Km 1356 m 03:14:10 28.64 Km\h
15/01/2012 Show to everybody 15 gen. 119.01 Km 755 m 03:55:42 30.29 Km\h
13/01/2012 Show to everybody 13 gen. 52.65 Km 571 m 02:03:52 25.51 Km\h
08/01/2012 Show to everybody 8 gen. 143.02 Km 1231 m 05:15:10 27.23 Km\h
05/01/2012 Show to everybody 5 gen. 60.74 Km 388 m 02:15:27 26.9 Km\h
02/01/2012 Show to everybody 2 gen. 60.39 Km 417 m 02:16:50 26.48 Km\h
01/01/2012 Show to everybody 1 gen 111.25 Km 1186 m 03:49:13 29.12 Km\h

Show previous years trainings
This user's bikes.

398 points
Kilometers
0
Vertical gain
0
Rank:42

Watch ranking »

 

Bike name

Delete this bike?

Now you follow this users and you can compare your trainings

If you stop following this users you will not be able to compare your trainings with his


bdc-forum.it | 2012-2020 Training Camp v.1.0.15